Time;durP1;ratioP1;P1;durP2;ratioP2;P2;SDS_P1;SDS_P2;PMS_P1;PMS_P2;Temp;Humidity;BMP_temperature;BMP_pressure;BME280_temperature;BME280_humidity;BME280_pressure;Samples;Min_cycle;Max_cycle;Signal;HPM_P1;HPM_P2
2021/11/18 00:01:51;;;;;;;53.70;24.20;;;;;;;-0.73;61.24;100406.23;24472;1360;3026181;-70
2021/11/18 00:04:20;;;;;;;41.50;21.30;;;;;;;-0.72;60.92;100406.94;24534;1354;3052752;-70
2021/11/18 00:06:49;;;;;;;37.40;16.50;;;;;;;-0.71;60.27;100406.59;24479;1359;3026721;-69
2021/11/18 00:09:20;;;;;;;35.30;14.60;;;;;;;-0.69;59.93;100405.39;24445;1360;3052249;-73
2021/11/18 00:11:50;;;;;;;36.20;14.80;;;;;;;-0.66;59.47;100408.48;24464;1354;3026926;-67
2021/11/18 00:14:19;;;;;;;36.70;13.40;;;;;;;-0.71;59.81;100407.62;24451;1357;3028389;-70
2021/11/18 00:16:48;;;;;;;37.20;15.30;;;;;;;-0.73;59.79;100407.98;24457;1356;3026154;-68
2021/11/18 00:19:17;;;;;;;35.50;17.70;;;;;;;-0.73;60.37;100404.00;24443;1357;3053018;-65
2021/11/18 00:21:46;;;;;;;42.40;21.10;;;;;;;-0.76;60.65;100405.04;24417;1357;3026611;-70
2021/11/18 00:24:15;;;;;;;45.20;23.50;;;;;;;-0.75;60.63;100400.90;24414;1360;3050191;-71
2021/11/18 00:26:45;;;;;;;45.70;23.50;;;;;;;-0.77;61.12;100402.27;24405;1359;3026634;-68
2021/11/18 00:29:13;;;;;;;42.60;23.50;;;;;;;-0.80;61.46;100400.39;24506;1360;3058466;-70
2021/11/18 00:31:42;;;;;;;45.50;22.60;;;;;;;-0.80;61.35;100394.70;24427;1354;3026704;-68
2021/11/18 00:34:12;;;;;;;44.90;23.30;;;;;;;-0.78;61.26;100395.92;24434;1362;3053108;-69
2021/11/18 00:36:41;;;;;;;41.50;21.10;;;;;;;-0.84;61.93;100394.70;24458;1356;3028351;-70
2021/11/18 00:39:10;;;;;;;40.90;22.20;;;;;;;-0.91;62.45;100400.02;24496;1360;3051696;-75
2021/11/18 00:41:41;;;;;;;41.00;19.70;;;;;;;-0.93;63.09;100395.04;24457;1351;3027131;-72
2021/11/18 00:44:10;;;;;;;43.90;19.80;;;;;;;-0.94;63.04;100391.77;24446;1355;3026528;-70
2021/11/18 00:46:38;;;;;;;44.30;20.20;;;;;;;-0.95;63.16;100388.52;24495;1358;3051507;-71
2021/11/18 00:49:09;;;;;;;53.80;21.20;;;;;;;-0.99;63.45;100386.77;24496;1357;3026482;-70
2021/11/18 00:51:39;;;;;;;43.30;21.50;;;;;;;-1.03;63.62;100387.29;24476;1355;3048541;-73
2021/11/18 00:54:10;;;;;;;45.50;19.00;;;;;;;-1.01;62.95;100387.63;24545;1358;3027280;-70
2021/11/18 00:56:40;;;;;;;41.40;17.30;;;;;;;-1.00;62.64;100384.70;24454;1360;3026623;-73
2021/11/18 00:59:10;;;;;;;41.30;16.80;;;;;;;-1.01;62.25;100383.67;24472;1354;3048634;-67
2021/11/18 01:01:45;;;;;;;36.80;16.50;;;;;;;-1.00;62.11;100382.48;24450;1354;3028876;-75
2021/11/18 01:04:16;;;;;;;40.00;17.80;;;;;;;-0.98;61.87;100387.81;24450;1355;3051629;-69
2021/11/18 01:06:46;;;;;;;30.70;15.60;;;;;;;-0.96;61.59;100390.05;24477;1360;3026743;-71
2021/11/18 01:09:15;;;;;;;34.20;17.00;;;;;;;-1.02;61.74;100389.88;24495;1354;3026822;-72
2021/11/18 01:11:46;;;;;;;40.50;16.40;;;;;;;-1.01;61.74;100387.29;24472;1360;3026911;-67
2021/11/18 01:14:18;;;;;;;37.30;17.40;;;;;;;-1.01;61.40;100389.52;24489;1355;3027210;-69
2021/11/18 01:16:48;;;;;;;38.00;16.00;;;;;;;-1.10;61.33;100390.20;24458;1357;3028916;-68
2021/11/18 01:19:20;;;;;;;32.70;13.70;;;;;;;-1.05;61.03;100387.97;24467;1358;3027003;-68
2021/11/18 01:21:49;;;;;;;32.40;14.90;;;;;;;-1.03;60.57;100385.73;24462;1354;3026946;-70
2021/11/18 01:24:18;;;;;;;41.90;15.50;;;;;;;-1.00;60.58;100381.79;24472;1358;3071105;-71
2021/11/18 01:27:06;;;;;;;38.30;15.30;;;;;;;-0.99;60.26;100379.57;24486;1357;3052419;-66
2021/11/18 01:29:36;;;;;;;26.30;12.40;;;;;;;-1.00;60.12;100375.43;24452;1361;3027349;-69
2021/11/18 01:32:05;;;;;;;37.30;13.80;;;;;;;-0.97;60.10;100376.80;24516;1362;3026934;-67
2021/11/18 01:34:35;;;;;;;32.40;14.20;;;;;;;-0.95;59.82;100376.63;24486;1357;3047965;-70
2021/11/18 01:37:04;;;;;;;37.90;14.40;;;;;;;-0.93;59.98;100379.56;24495;1354;3026669;-71
2021/11/18 01:39:34;;;;;;;30.10;14.30;;;;;;;-0.92;60.04;100380.42;24426;1358;3070651;-72
2021/11/18 01:42:03;;;;;;;33.70;16.20;;;;;;;-0.92;60.11;100378.52;24429;1361;3026599;-66
2021/11/18 01:44:40;;;;;;;40.90;17.20;;;;;;;-0.90;60.19;100379.74;24455;1354;3026363;-70
2021/11/18 01:47:09;;;;;;;42.50;16.10;;;;;;;-0.93;60.64;100375.42;24468;1355;3054321;-65
2021/11/18 01:49:41;;;;;;;41.70;17.00;;;;;;;-0.93;61.01;100377.14;24498;1354;3026307;-75
2021/11/18 01:52:14;;;;;;;34.60;17.90;;;;;;;-0.89;61.20;100378.88;24463;1354;3027452;-68
2021/11/18 01:54:44;;;;;;;35.80;18.00;;;;;;;-0.89;61.92;100378.88;24482;1357;3026964;-69
2021/11/18 01:57:15;;;;;;;37.60;17.10;;;;;;;-0.87;61.86;100378.88;24491;1354;3027330;-70
2021/11/18 01:59:46;;;;;;;42.40;15.90;;;;;;;-0.88;61.84;100376.13;24487;1360;3026558;-70
2021/11/18 02:02:46;;;;;;;34.10;15.40;;;;;;;-0.92;62.28;100374.23;24493;1351;3049529;-64
2021/11/18 02:05:46;;;;;;;36.30;17.50;;;;;;;-0.93;62.34;100378.88;24515;1354;3054808;-70
2021/11/18 02:08:16;;;;;;;49.60;19.80;;;;;;;-0.95;63.09;100377.32;24488;1360;3054087;-69
2021/11/18 02:11:08;;;;;;;52.00;19.60;;;;;;;-0.99;64.11;100371.98;24466;1355;3057606;-69
2021/11/18 02:13:37;;;;;;;54.90;21.90;;;;;;;-1.03;64.61;100370.09;24528;1355;3026861;-68
2021/11/18 02:16:12;;;;;;;67.20;22.90;;;;;;;-1.05;64.64;100365.45;24472;1354;3027627;-73
2021/11/18 02:18:41;;;;;;;65.60;23.50;;;;;;;-1.03;64.31;100366.99;24450;1357;3058600;-67
2021/11/18 02:21:13;;;;;;;65.80;24.30;;;;;;;-1.08;65.33;100365.61;24516;1355;3026979;-72
2021/11/18 02:23:47;;;;;;;63.80;23.80;;;;;;;-1.09;65.44;100364.58;24554;1354;3026623;-68
2021/11/18 02:26:17;;;;;;;68.90;23.40;;;;;;;-1.08;65.65;100364.41;24465;1360;3050939;-69
2021/11/18 02:28:47;;;;;;;68.50;23.30;;;;;;;-1.14;65.98;100365.95;24495;1351;3027113;-68
2021/11/18 02:31:28;;;;;;;54.00;21.00;;;;;;;-1.17;66.12;100368.19;24471;1356;3026930;-67
2021/11/18 02:33:59;;;;;;;57.50;22.10;;;;;;;-1.21;66.17;100372.47;24520;1354;3052449;-69
2021/11/18 02:36:28;;;;;;;54.30;21.40;;;;;;;-1.25;66.58;100369.36;24449;1359;3026635;-69
2021/11/18 02:38:57;;;;;;;61.30;21.80;;;;;;;-1.29;66.50;100368.84;24443;1361;3026510;-68
2021/11/18 02:41:27;;;;;;;60.00;23.80;;;;;;;-1.32;66.67;100369.88;24476;1355;3027279;-73
2021/11/18 02:43:56;;;;;;;55.30;22.80;;;;;;;-1.34;66.27;100365.73;24501;1354;3026631;-70
2021/11/18 02:46:25;;;;;;;55.10;22.90;;;;;;;-1.40;66.88;100366.77;24469;1361;3057149;-70
2021/11/18 02:48:54;;;;;;;67.00;24.40;;;;;;;-1.43;67.04;100363.48;24474;1358;3028161;-68
2021/11/18 02:51:26;;;;;;;54.90;20.20;;;;;;;-1.41;67.10;100365.37;24473;1357;3054184;-68
2021/11/18 02:53:58;;;;;;;54.10;21.60;;;;;;;-1.39;67.26;100366.75;24528;1354;3027341;-65
2021/11/18 02:56:29;;;;;;;57.10;24.00;;;;;;;-1.41;67.16;100366.06;24440;1358;3026558;-66
2021/11/18 02:58:58;;;;;;;47.00;21.40;;;;;;;-1.49;67.36;100363.29;24456;1362;3056373;-65
2021/11/18 03:01:33;;;;;;;55.50;21.60;;;;;;;-1.56;67.76;100365.34;24474;1361;3026799;-69
2021/11/18 03:04:04;;;;;;;45.90;19.60;;;;;;;-1.54;67.39;100366.20;24451;1356;3052475;-68
2021/11/18 03:06:33;;;;;;;46.50;21.20;;;;;;;-1.53;67.43;100372.91;24481;1357;3026603;-72
2021/11/18 03:09:02;;;;;;;53.30;21.00;;;;;;;-1.51;67.24;100373.09;24500;1360;3026790;-68
2021/11/18 03:11:32;;;;;;;51.80;22.00;;;;;;;-1.48;66.87;100370.00;24542;1355;3052072;-74
2021/11/18 03:14:02;;;;;;;47.90;19.70;;;;;;;-1.48;66.96;100368.63;24482;1359;3027496;-71
2021/11/18 03:16:41;;;;;;;54.60;20.20;;;;;;;-1.52;66.88;100365.70;24490;1354;3055603;-68
2021/11/18 03:19:10;;;;;;;47.80;17.80;;;;;;;-1.55;67.01;100362.92;24480;1355;3026871;-67
2021/11/18 03:21:39;;;;;;;43.30;17.30;;;;;;;-1.55;66.85;100367.23;24460;1357;3051500;-72
2021/11/18 03:24:08;;;;;;;48.40;17.80;;;;;;;-1.56;66.82;100364.13;24473;1356;3026538;-73
2021/11/18 03:26:37;;;;;;;40.10;18.80;;;;;;;-1.54;66.51;100361.73;24461;1357;3056275;-71
2021/11/18 03:29:13;;;;;;;45.60;19.60;;;;;;;-1.56;66.48;100360.01;24476;1355;3052084;-67
2021/11/18 03:31:45;;;;;;;48.80;20.80;;;;;;;-1.57;66.65;100359.13;24471;1357;3026308;-66
2021/11/18 03:34:18;;;;;;;54.60;21.20;;;;;;;-1.57;66.32;100359.14;24467;1355;3026571;-73
2021/11/18 03:36:49;;;;;;;41.90;20.60;;;;;;;-1.57;66.31;100356.73;24522;1354;3055360;-71
2021/11/18 03:39:19;;;;;;;39.00;18.60;;;;;;;-1.58;66.56;100352.43;24472;1357;3026541;-70
2021/11/18 03:41:50;;;;;;;44.00;19.10;;;;;;;-1.59;66.12;100348.66;24472;1361;3049758;-71
2021/11/18 03:44:20;;;;;;;43.80;20.00;;;;;;;-1.58;65.73;100345.73;24509;1354;3026417;-69
2021/11/18 03:46:53;;;;;;;47.30;21.80;;;;;;;-1.59;65.74;100345.39;24490;1354;3026771;-72
2021/11/18 03:49:22;;;;;;;45.90;21.10;;;;;;;-1.61;65.73;100344.17;24460;1361;3027246;-71
2021/11/18 03:51:53;;;;;;;43.60;19.50;;;;;;;-1.58;65.62;100342.13;24486;1357;3026773;-73
2021/11/18 03:54:23;;;;;;;49.50;19.90;;;;;;;-1.56;65.47;100343.16;24465;1356;3026357;-68
2021/11/18 03:56:53;;;;;;;43.10;19.80;;;;;;;-1.55;65.43;100344.37;24468;1362;3027311;-72
2021/11/18 03:59:26;;;;;;;39.80;18.90;;;;;;;-1.52;65.02;100345.59;24452;1358;3029488;-68
2021/11/18 04:01:57;;;;;;;50.90;19.30;;;;;;;-1.48;64.86;100350.91;24490;1357;3052821;-72
2021/11/18 04:04:39;;;;;;;45.20;19.50;;;;;;;-1.53;65.07;100347.46;24503;1355;3026529;-67
2021/11/18 04:07:09;;;;;;;46.20;18.00;;;;;;;-1.57;64.98;100351.41;24466;1357;3059376;-71
2021/11/18 04:09:40;;;;;;;44.00;18.20;;;;;;;-1.59;64.71;100348.66;24477;1354;3026134;-69
2021/11/18 04:12:11;;;;;;;37.80;16.90;;;;;;;-1.62;64.71;100351.22;24478;1359;3025805;-69
2021/11/18 04:14:40;;;;;;;40.30;16.50;;;;;;;-1.61;64.72;100346.08;24464;1354;3028600;-70
2021/11/18 04:17:13;;;;;;;42.30;17.50;;;;;;;-1.67;64.77;100346.06;24476;1355;3026550;-69
2021/11/18 04:19:42;;;;;;;36.80;16.70;;;;;;;-1.67;64.81;100349.15;24515;1357;3026500;-66
2021/11/18 04:22:11;;;;;;;41.80;17.40;;;;;;;-1.64;64.79;100351.39;24452;1357;3026306;-70
2021/11/18 04:24:42;;;;;;;52.40;18.10;;;;;;;-1.63;64.58;100345.73;24496;1355;3026665;-74
2021/11/18 04:27:11;;;;;;;39.20;18.40;;;;;;;-1.66;64.65;100345.53;24464;1360;3026560;-72
2021/11/18 04:29:41;;;;;;;47.20;21.40;;;;;;;-1.73;64.82;100342.59;24454;1355;3028505;-70
2021/11/18 04:32:12;;;;;;;63.10;29.60;;;;;;;-1.75;64.69;100340.70;24395;1360;3026157;-72
2021/11/18 04:34:43;;;;;;;60.80;31.00;;;;;;;-1.76;64.85;100338.80;24439;1357;3029296;-72
2021/11/18 04:37:14;;;;;;;61.80;31.00;;;;;;;-1.74;64.67;100335.54;24364;1360;3028488;-71
2021/11/18 04:39:44;;;;;;;67.80;32.90;;;;;;;-1.70;64.59;100339.52;24482;1355;3026620;-69
2021/11/18 04:42:15;;;;;;;57.60;31.20;;;;;;;-1.69;64.70;100343.47;24472;1357;3027008;-69
2021/11/18 04:44:50;;;;;;;63.20;33.10;;;;;;;-1.69;64.50;100342.44;24519;1357;3051315;-69
2021/11/18 04:47:19;;;;;;;60.90;30.00;;;;;;;-1.75;64.77;100346.20;24485;1351;3026765;-65
2021/11/18 04:49:49;;;;;;;59.80;29.40;;;;;;;-1.79;64.81;100346.00;24439;1357;3051438;-68
2021/11/18 04:52:18;;;;;;;55.70;28.00;;;;;;;-1.82;65.05;100346.34;24470;1357;3027270;-70
2021/11/18 04:54:47;;;;;;;56.70;25.60;;;;;;;-1.82;64.97;100349.78;24220;1358;3027327;-68
2021/11/18 04:57:16;;;;;;;51.30;26.10;;;;;;;-1.80;65.23;100346.86;24444;1361;3054619;-69
2021/11/18 04:59:46;;;;;;;53.20;28.20;;;;;;;-1.84;65.53;100348.05;24481;1354;3026712;-74
2021/11/18 05:02:15;;;;;;;95.60;41.70;;;;;;;-1.85;65.44;100343.23;24449;1358;3026756;-68
2021/11/18 05:04:44;;;;;;;68.30;34.10;;;;;;;-1.86;65.64;100342.36;24471;1358;3052055;-70
2021/11/18 05:07:13;;;;;;;61.90;28.60;;;;;;;-1.87;66.06;100347.86;24511;1355;3026742;-69
2021/11/18 05:09:44;;;;;;;64.10;26.50;;;;;;;-1.89;66.40;100350.27;24453;1354;3050727;-71
2021/11/18 05:12:13;;;;;;;55.90;23.30;;;;;;;-1.87;66.55;100351.64;24521;1362;3028661;-73
2021/11/18 05:14:42;;;;;;;53.20;22.90;;;;;;;-1.87;67.24;100353.87;24473;1351;3025914;-70
2021/11/18 05:17:13;;;;;;;51.60;21.90;;;;;;;-1.80;67.09;100358.89;24441;1363;3026713;-72
2021/11/18 05:19:42;;;;;;;52.90;21.50;;;;;;;-1.78;67.04;100359.57;24460;1357;3027754;-68
2021/11/18 05:22:12;;;;;;;60.70;21.90;;;;;;;-1.79;67.51;100359.41;24455;1360;3026262;-72
2021/11/18 05:24:41;;;;;;;50.00;22.00;;;;;;;-1.75;67.71;100362.69;24451;1354;3026475;-73
2021/11/18 05:27:11;;;;;;;52.40;22.70;;;;;;;-1.77;67.73;100357.01;24470;1359;3026926;-70
2021/11/18 05:29:41;;;;;;;52.20;21.30;;;;;;;-1.73;68.06;100361.67;24512;1360;3052329;-74
2021/11/18 05:32:09;;;;;;;49.80;20.50;;;;;;;-1.69;68.19;100361.33;24446;1360;3026800;-73
2021/11/18 05:35:00;;;;;;;43.60;20.50;;;;;;;-1.61;67.81;100365.84;24451;1361;3049325;-70
2021/11/18 05:37:29;;;;;;;52.30;21.60;;;;;;;-1.57;67.72;100364.63;24490;1355;3026317;-72
2021/11/18 05:39:58;;;;;;;51.30;23.70;;;;;;;-1.59;68.11;100366.69;24469;1357;3026598;-70
2021/11/18 05:42:27;;;;;;;54.70;25.00;;;;;;;-1.58;68.09;100367.73;24436;1362;3050067;-70
2021/11/18 05:44:57;;;;;;;53.70;24.80;;;;;;;-1.51;67.58;100368.10;24450;1359;3026880;-67
2021/11/18 05:47:25;;;;;;;55.80;26.00;;;;;;;-1.47;67.54;100362.27;24468;1357;3027562;-69
2021/11/18 05:49:54;;;;;;;57.80;23.30;;;;;;;-1.42;67.43;100362.96;24451;1357;3049993;-71
2021/11/18 05:52:26;;;;;;;53.10;21.60;;;;;;;-1.40;67.19;100368.81;24514;1354;3027754;-72
2021/11/18 05:54:56;;;;;;;63.50;23.70;;;;;;;-1.36;66.68;100373.63;24485;1357;3027012;-70
2021/11/18 05:57:26;;;;;;;58.00;23.60;;;;;;;-1.31;66.55;100371.07;24439;1361;3026610;-72
2021/11/18 05:59:55;;;;;;;48.10;21.70;;;;;;;-1.32;66.47;100370.90;24426;1354;3026325;-69
2021/11/18 06:02:23;;;;;;;53.90;19.40;;;;;;;-1.31;65.96;100367.80;24445;1357;3050000;-71
2021/11/18 06:04:52;;;;;;;59.10;22.50;;;;;;;-1.24;65.71;100370.23;24462;1357;3026354;-74
2021/11/18 06:07:22;;;;;;;54.20;21.20;;;;;;;-1.22;65.73;100367.66;24472;1363;3056728;-70
2021/11/18 06:09:51;;;;;;;61.40;21.40;;;;;;;-1.20;65.58;100365.60;24457;1357;3029312;-72
2021/11/18 06:12:21;;;;;;;45.80;20.90;;;;;;;-1.18;65.96;100374.20;24449;1360;3051542;-71
2021/11/18 06:16:53;;;;;;;57.30;22.60;;;;;;;-1.06;65.87;100366.82;30793;1358;3026733;-69
2021/11/18 06:19:23;;;;;;;74.50;35.20;;;;;;;-0.72;65.17;100367.17;24456;1357;3026756;-71
2021/11/18 06:21:53;;;;;;;59.00;27.00;;;;;;;-0.40;63.70;100362.69;24431;1359;3027268;-67
2021/11/18 06:24:23;;;;;;;60.60;26.80;;;;;;;-0.55;64.18;100367.01;24489;1358;3029915;-75
2021/11/18 06:26:55;;;;;;;65.90;27.70;;;;;;;-0.65;64.66;100362.89;24439;1360;3026309;-73
2021/11/18 06:29:30;;;;;;;58.00;24.90;;;;;;;-0.58;64.54;100357.73;24420;1355;3156698;-68
2021/11/18 06:32:01;;;;;;;55.50;24.80;;;;;;;-0.55;64.32;100353.75;24493;1358;3026843;-67
2021/11/18 06:34:30;;;;;;;54.70;23.50;;;;;;;-0.61;64.83;100352.05;24447;1363;3026679;-67
2021/11/18 06:36:59;;;;;;;55.80;23.50;;;;;;;-0.53;64.65;100350.83;24455;1354;3027167;-70
2021/11/18 06:39:37;;;;;;;65.20;24.60;;;;;;;-0.50;64.57;100347.39;24466;1357;3049636;-74
2021/11/18 06:42:25;;;;;;;49.40;22.40;;;;;;;-0.45;64.61;100349.61;24449;1354;3071333;-69
2021/11/18 06:45:01;;;;;;;79.30;22.90;;;;;;;-0.36;64.57;100349.94;24485;1356;3049394;-72
2021/11/18 06:47:30;;;;;;;70.90;24.30;;;;;;;-0.34;64.47;100351.66;24478;1361;3026220;-70
2021/11/18 06:50:01;;;;;;;59.20;22.90;;;;;;;-0.24;64.19;100349.05;24487;1361;3026749;-74
2021/11/18 06:52:30;;;;;;;55.60;22.70;;;;;;;-0.19;64.32;100345.60;24494;1359;3029875;-73
2021/11/18 06:58:47;;;;;;;51.80;20.60;;;;;;;0.00;64.06;100344.70;24404;1360;3056042;-67
2021/11/18 07:01:16;;;;;;;59.70;24.50;;;;;;;0.06;63.91;100341.73;24474;1357;3026402;-73
2021/11/18 07:03:46;;;;;;;67.20;25.00;;;;;;;0.11;64.09;100341.20;24492;1358;3026571;-69
2021/11/18 07:06:17;;;;;;;54.90;22.60;;;;;;;0.20;63.88;100338.59;24510;1358;3026702;-70
2021/11/18 07:08:47;;;;;;;56.40;23.30;;;;;;;0.27;63.92;100332.00;24484;1360;3055455;-74
2021/11/18 07:11:17;;;;;;;70.10;24.40;;;;;;;0.31;63.72;100332.84;24485;1358;3026842;-66
2021/11/18 07:13:46;;;;;;;54.50;23.30;;;;;;;0.39;63.66;100328.66;24501;1356;3051715;-73
2021/11/18 07:16:24;;;;;;;54.80;22.90;;;;;;;0.47;63.40;100335.01;24505;1355;3058667;-73
2021/11/18 07:18:53;;;;;;;59.50;22.50;;;;;;;0.56;63.23;100334.09;24485;1358;3027223;-70
2021/11/18 07:21:23;;;;;;;45.00;19.10;;;;;;;0.63;63.60;100331.46;24465;1360;3027780;-71
2021/11/18 07:23:54;;;;;;;45.90;19.50;;;;;;;0.74;63.77;100331.58;24492;1358;3059045;-72
2021/11/18 07:26:25;;;;;;;39.40;17.30;;;;;;;0.78;63.79;100320.69;24454;1358;3026867;-73
2021/11/18 07:28:55;;;;;;;38.50;17.10;;;;;;;0.88;63.53;100315.95;24552;1354;3027084;-72
2021/11/18 07:31:24;;;;;;;38.90;16.90;;;;;;;0.96;63.18;100314.16;24484;1360;3029192;-66
2021/11/18 07:33:53;;;;;;;50.10;17.60;;;;;;;1.07;63.02;100312.71;24451;1360;3049093;-69
2021/11/18 07:36:22;;;;;;;43.80;16.80;;;;;;;1.14;62.83;100316.95;24481;1359;3026931;-68
2021/11/18 07:38:51;;;;;;;46.50;18.70;;;;;;;1.21;62.21;100312.92;24520;1360;3026522;-71
2021/11/18 07:41:22;;;;;;;42.50;18.00;;;;;;;1.25;62.32;100310.13;24485;1359;3048915;-72
2021/11/18 07:44:13;;;;;;;42.50;15.90;;;;;;;1.30;61.68;100314.06;24567;1360;3052989;-67
2021/11/18 07:47:00;;;;;;;39.90;16.70;;;;;;;1.39;61.28;100312.43;24594;1358;3050607;-72
2021/11/18 07:49:30;;;;;;;46.70;19.30;;;;;;;1.45;60.90;100315.30;24567;1355;3028184;-71
2021/11/18 07:59:01;;;;;;;43.70;17.40;;;;;;;1.67;59.44;100311.45;24705;1353;3069845;-75
2021/11/18 08:01:33;;;;;;;37.70;17.70;;;;;;;1.74;58.95;100308.62;24453;1363;3026676;-76
2021/11/18 08:04:03;;;;;;;36.70;16.50;;;;;;;1.92;58.80;100311.19;24378;1366;3031063;-73
2021/11/18 08:06:41;;;;;;;37.80;16.60;;;;;;;2.06;57.62;100308.95;24446;1369;3051568;-79
2021/11/18 08:09:25;;;;;;;38.30;16.20;;;;;;;2.14;57.31;100304.17;24344;1371;3058934;-74
2021/11/18 08:11:58;;;;;;;29.20;14.30;;;;;;;2.22;56.52;100298.88;24346;1365;3026627;-73
2021/11/18 08:14:27;;;;;;;31.80;15.60;;;;;;;2.33;56.06;100292.69;24413;1361;3051982;-72
2021/11/18 08:16:56;;;;;;;37.20;16.70;;;;;;;2.47;55.74;100295.09;24346;1370;3026519;-69
2021/11/18 08:19:27;;;;;;;27.50;13.40;;;;;;;2.53;54.76;100292.93;24392;1362;3052766;-75
2021/11/18 08:21:58;;;;;;;26.70;10.90;;;;;;;2.66;54.10;100289.28;24377;1367;3026636;-72
2021/11/18 08:24:30;;;;;;;32.80;11.70;;;;;;;2.73;53.22;100279.84;24346;1363;3029083;-72
2021/11/18 08:27:00;;;;;;;27.90;11.20;;;;;;;2.78;52.95;100274.57;24325;1368;3027465;-71
2021/11/18 08:29:31;;;;;;;31.00;14.20;;;;;;;2.86;52.14;100267.00;24386;1360;3027394;-74
2021/11/18 08:32:00;;;;;;;24.10;11.30;;;;;;;2.87;51.26;100264.73;24376;1365;3026518;-71
2021/11/18 08:34:37;;;;;;;26.60;11.60;;;;;;;2.91;49.94;100257.94;24397;1365;3049426;-74
2021/11/18 08:37:14;;;;;;;26.40;11.80;;;;;;;2.93;49.95;100253.56;24330;1363;3052266;-75
2021/11/18 08:39:45;;;;;;;27.50;11.70;;;;;;;2.89;49.05;100253.81;24336;1367;3026647;-70
2021/11/18 08:42:18;;;;;;;26.40;12.10;;;;;;;3.03;49.72;100260.49;24356;1364;3027311;-77
2021/11/18 08:44:48;;;;;;;29.10;13.30;;;;;;;3.10;50.01;100269.20;24320;1367;3027050;-76
2021/11/18 08:47:19;;;;;;;36.70;15.10;;;;;;;3.25;50.99;100264.79;24379;1364;3026098;-74
2021/11/18 08:49:48;;;;;;;30.70;13.90;;;;;;;3.31;50.61;100263.30;24261;1367;3027280;-75
2021/11/18 08:52:23;;;;;;;26.80;12.50;;;;;;;3.45;48.85;100262.86;24375;1364;3048599;-72
2021/11/18 08:54:56;;;;;;;33.70;12.40;;;;;;;3.49;48.48;100262.96;24315;1363;3056120;-73
2021/11/18 08:57:26;;;;;;;31.90;12.40;;;;;;;3.53;47.99;100262.88;24311;1364;3026445;-70
2021/11/18 09:00:58;;;;;;;22.80;11.00;;;;;;;3.66;46.66;100258.66;24329;1367;3058536;-73
2021/11/18 09:03:33;;;;;;;18.80;7.80;;;;;;;3.68;44.49;100256.89;24345;1368;3049568;-73
2021/11/18 09:06:06;;;;;;;26.50;9.90;;;;;;;3.80;42.47;100254.90;24282;1370;3026443;-70
2021/11/18 09:08:39;;;;;;;33.50;13.20;;;;;;;3.75;43.79;100256.57;24328;1363;3052347;-74
2021/11/18 09:11:11;;;;;;;30.90;12.90;;;;;;;3.76;45.29;100258.98;24302;1367;3027351;-73
2021/11/18 09:13:43;;;;;;;34.10;12.30;;;;;;;3.99;45.72;100255.75;24278;1363;3049604;-77
2021/11/18 09:16:12;;;;;;;27.00;13.10;;;;;;;4.14;45.09;100252.80;24293;1363;3026328;-73
2021/11/18 09:18:43;;;;;;;34.10;12.60;;;;;;;4.29;44.48;100247.98;24284;1371;3026580;-69
2021/11/18 09:21:14;;;;;;;32.30;13.60;;;;;;;4.46;44.99;100236.33;24294;1367;3026586;-73
2021/11/18 09:23:47;;;;;;;33.90;13.30;;;;;;;4.61;44.61;100230.59;24319;1363;3051821;-73
2021/11/18 09:26:16;;;;;;;32.90;12.90;;;;;;;4.70;43.88;100224.14;24332;1368;3027010;-73
2021/11/18 09:28:45;;;;;;;27.80;13.50;;;;;;;4.75;43.40;100220.89;24310;1368;3026921;-73
2021/11/18 09:31:28;;;;;;;28.60;12.10;;;;;;;4.72;42.12;100217.83;24307;1370;3052541;-70
2021/11/18 09:33:57;;;;;;;29.00;12.90;;;;;;;4.77;42.50;100210.95;24304;1363;3026612;-71
2021/11/18 09:36:26;;;;;;;29.90;12.20;;;;;;;4.84;42.45;100209.73;24204;1371;3053196;-73
2021/11/18 09:38:57;;;;;;;24.30;10.40;;;;;;;4.97;40.83;100208.36;24298;1368;3026887;-71
2021/11/18 09:41:26;;;;;;;24.30;11.10;;;;;;;5.00;39.45;100201.87;24343;1368;3028367;-70
2021/11/18 09:44:11;;;;;;;34.70;12.60;;;;;;;5.14;40.91;100202.20;24312;1364;3026840;-69
2021/11/18 09:46:59;;;;;;;;;;;;;;;5.20;40.51;100197.16;24332;1363;3049678;-68
2021/11/18 09:49:51;;;;;;;30.10;11.90;;;;;;;5.27;40.72;100196.65;24331;1357;3054106;-70
2021/11/18 09:53:17;;;;;;;23.10;10.30;;;;;;;5.27;38.58;100189.18;24271;1365;3050867;-73
2021/11/18 09:56:03;;;;;;;22.40;10.40;;;;;;;5.24;37.68;100183.52;24113;1372;3069154;-71
2021/11/18 09:58:52;;;;;;;28.80;10.00;;;;;;;5.33;36.89;100180.85;24175;1372;3051698;-71
2021/11/18 10:01:34;;;;;;;26.80;11.10;;;;;;;5.40;37.11;100173.70;24292;1365;3052374;-69
2021/11/18 10:04:17;;;;;;;21.20;10.00;;;;;;;5.52;37.48;100171.64;24335;1370;3054023;-71
2021/11/18 10:06:46;;;;;;;26.60;11.70;;;;;;;5.59;37.70;100170.92;24254;1367;3055683;-71
2021/11/18 10:09:39;;;;;;;29.90;11.40;;;;;;;5.63;37.33;100169.74;24267;1370;3026915;-68
2021/11/18 10:12:30;;;;;;;26.20;11.50;;;;;;;5.55;36.80;100165.63;24270;1370;3054813;-67
2021/11/18 10:15:12;;;;;;;31.80;11.00;;;;;;;5.46;36.11;100155.64;24296;1365;3056276;-68
2021/11/18 10:17:50;;;;;;;28.40;11.70;;;;;;;5.42;36.13;100155.76;24274;1367;3052303;-73
2021/11/18 10:20:34;;;;;;;28.10;11.70;;;;;;;5.47;36.74;100152.30;24318;1368;3053836;-71
2021/11/18 10:23:09;;;;;;;25.10;11.00;;;;;;;5.64;36.83;100149.73;24302;1364;3053584;-73
2021/11/18 10:25:49;;;;;;;34.80;12.50;;;;;;;5.79;36.19;100147.73;24325;1363;3069289;-68
2021/11/18 10:28:18;;;;;;;29.70;12.70;;;;;;;5.80;36.43;100148.56;24282;1363;3052461;-74
2021/11/18 10:30:54;;;;;;;28.80;11.30;;;;;;;5.93;36.06;100136.88;24294;1364;3027591;-71
2021/11/18 10:33:28;;;;;;;30.70;11.90;;;;;;;6.00;35.82;100139.13;24288;1368;3071312;-73
2021/11/18 10:36:33;;;;;;;28.00;11.00;;;;;;;5.95;36.31;100137.70;24284;1364;3049125;-72
2021/11/18 10:39:25;;;;;;;23.30;10.50;;;;;;;5.96;34.77;100137.14;24350;1364;3051530;-70
2021/11/18 10:42:09;;;;;;;28.30;11.30;;;;;;;5.99;34.55;100133.40;24291;1365;3054267;-67
2021/11/18 10:45:04;;;;;;;26.40;11.70;;;;;;;6.16;34.49;100132.20;24329;1363;3056012;-75
2021/11/18 10:47:43;;;;;;;22.70;9.00;;;;;;;6.17;33.67;100126.42;24335;1370;3052202;-75
2021/11/18 10:50:43;;;;;;;25.30;10.20;;;;;;;6.21;33.53;100126.66;24332;1363;3052878;-71
2021/11/18 10:53:23;;;;;;;29.60;9.60;;;;;;;5.94;34.21;100126.26;24325;1363;3051534;-71
2021/11/18 10:56:04;;;;;;;21.40;10.50;;;;;;;5.91;34.58;100120.07;24346;1370;3071554;-76
2021/11/18 10:58:38;;;;;;;19.10;10.10;;;;;;;6.10;34.67;100115.85;24304;1370;3053067;-73
2021/11/18 11:01:25;;;;;;;21.90;9.80;;;;;;;6.27;34.20;100118.98;24320;1363;3052836;-72
2021/11/18 11:03:58;;;;;;;23.60;10.00;;;;;;;6.52;34.13;100115.53;24289;1368;3054569;-71
2021/11/18 11:06:29;;;;;;;29.70;12.70;;;;;;;6.62;34.10;100107.88;24269;1367;3054583;-72
2021/11/18 11:09:10;;;;;;;24.50;10.90;;;;;;;6.64;33.97;100104.68;24308;1370;3027567;-74
2021/11/18 11:11:58;;;;;;;24.10;10.10;;;;;;;6.71;34.13;100102.20;24312;1369;3056014;-73
2021/11/18 11:15:05;;;;;;;24.10;9.40;;;;;;;6.67;33.17;100099.91;24273;1364;3051318;-74
2021/11/18 11:18:18;;;;;;;22.70;8.70;;;;;;;6.43;31.29;100093.91;24297;1367;3071474;-76
2021/11/18 11:20:51;;;;;;;22.00;9.10;;;;;;;6.59;31.31;100092.17;24198;1370;3049028;-74
2021/11/18 11:23:36;;;;;;;22.10;8.60;;;;;;;6.54;31.95;100087.30;24335;1368;3052136;-71
2021/11/18 11:26:15;;;;;;;22.20;8.70;;;;;;;6.58;32.04;100084.55;24280;1364;3051950;-74
2021/11/18 11:28:50;;;;;;;22.50;8.60;;;;;;;6.72;31.68;100079.88;24336;1370;3056724;-70
2021/11/18 11:31:35;;;;;;;18.20;8.80;;;;;;;6.84;31.34;100077.89;24296;1363;3048604;-74
2021/11/18 11:34:22;;;;;;;20.50;9.00;;;;;;;6.90;31.11;100072.63;24329;1367;3052663;-73
2021/11/18 11:36:57;;;;;;;22.60;8.50;;;;;;;6.86;31.22;100071.71;24287;1363;3051406;-72
2021/11/18 11:39:55;;;;;;;22.00;9.00;;;;;;;7.00;31.21;100068.23;24300;1364;3068686;-73